Time;durP1;ratioP1;P1;durP2;ratioP2;P2;SDS_P1;SDS_P2;PMS_P1;PMS_P2;Temp;Humidity;BMP_temperature;BMP_pressure;BME280_temperature;BME280_humidity;BME280_pressure;Samples;Min_cycle;Max_cycle;Signal;HPM_P1;HPM_P2
2022/05/17 00:01:00;;;;;;;31.30;5.18;;;13.90;99.90;;;;;;5015992;28;20046;-77
2022/05/17 00:03:28;;;;;;;34.45;5.45;;;13.90;99.90;;;;;;5016202;28;20054;-76
2022/05/17 00:05:55;;;;;;;35.25;5.05;;;13.90;99.90;;;;;;5014505;28;20049;-77
2022/05/17 00:08:24;;;;;;;28.70;5.30;;;13.90;99.90;;;;;;4998582;28;20453;-76
2022/05/17 00:10:52;;;;;;;35.03;5.40;;;13.80;99.90;;;;;;5014857;28;20053;-77
2022/05/17 00:13:19;;;;;;;29.52;5.65;;;13.80;99.90;;;;;;5015896;28;20049;-77
2022/05/17 00:15:51;;;;;;;32.65;5.32;;;13.70;99.90;;;;;;4998768;28;20050;-76
2022/05/17 00:18:21;;;;;;;33.25;6.03;;;13.70;99.90;;;;;;5014380;28;20049;-76
2022/05/17 00:20:48;;;;;;;28.52;4.80;;;13.70;99.90;;;;;;4998502;28;20053;-77
2022/05/17 00:23:16;;;;;;;31.85;5.13;;;13.70;99.90;;;;;;5015410;28;20049;-77
2022/05/17 00:25:47;;;;;;;31.77;5.03;;;13.60;99.90;;;;;;5014386;28;20052;-76
2022/05/17 00:28:19;;;;;;;29.90;4.78;;;13.60;99.90;;;;;;5015621;28;20046;-77
2022/05/17 00:30:49;;;;;;;36.13;5.22;;;13.60;99.90;;;;;;5015116;28;20477;-76
2022/05/17 00:33:17;;;;;;;28.90;4.68;;;13.60;99.90;;;;;;5015484;28;20057;-76
2022/05/17 00:35:45;;;;;;;37.90;4.90;;;13.50;99.90;;;;;;5015570;28;20049;-76
2022/05/17 00:38:14;;;;;;;35.28;5.28;;;13.50;99.90;;;;;;5014502;28;20050;-76
2022/05/17 00:40:42;;;;;;;27.17;4.68;;;13.50;99.90;;;;;;4998139;28;20042;-76
2022/05/17 00:43:11;;;;;;;;;;;13.50;99.90;;;;;;5015754;28;20052;-77
2022/05/17 00:45:46;;;;;;;32.25;4.82;;;13.40;99.90;;;;;;5014144;28;19940;-77
2022/05/17 00:48:15;;;;;;;35.63;4.80;;;13.40;99.90;;;;;;4997879;28;20038;-76
2022/05/17 00:50:47;;;;;;;34.05;5.28;;;13.40;99.90;;;;;;5015443;28;20042;-77
2022/05/17 00:53:32;;;;;;;29.58;4.63;;;13.40;99.90;;;;;;5015326;28;20046;-77
2022/05/17 00:56:04;;;;;;;31.25;4.95;;;13.30;99.90;;;;;;5015021;28;20064;-77
2022/05/17 00:58:37;;;;;;;26.30;4.63;;;13.30;99.90;;;;;;5014528;28;20445;-76
2022/05/17 01:01:09;;;;;;;27.92;4.50;;;13.30;99.90;;;;;;5015045;28;20046;-76
2022/05/17 01:03:46;;;;;;;35.20;4.95;;;13.20;99.90;;;;;;5015314;28;20461;-77
2022/05/17 01:06:16;;;;;;;31.63;4.60;;;13.20;99.90;;;;;;5013943;28;20042;-76
2022/05/17 01:08:44;;;;;;;28.90;4.50;;;13.20;99.90;;;;;;5014896;28;20065;-77
2022/05/17 01:11:11;;;;;;;27.00;4.55;;;13.20;99.90;;;;;;5014192;28;20064;-76
2022/05/17 01:16:26;;;;;;;29.98;4.32;;;13.10;99.90;;;;;;5014974;28;20046;-76
2022/05/17 01:18:54;;;;;;;26.65;4.38;;;13.10;99.90;;;;;;5012743;28;20065;-76
2022/05/17 01:21:22;;;;;;;23.63;4.13;;;13.00;99.90;;;;;;5015193;28;20042;-76
2022/05/17 01:23:50;;;;;;;28.67;3.72;;;13.00;99.90;;;;;;5015382;28;20056;-77
2022/05/17 01:26:23;;;;;;;34.63;4.40;;;13.00;99.90;;;;;;5013730;28;20472;-76
2022/05/17 01:28:51;;;;;;;22.77;3.78;;;13.00;99.90;;;;;;5014772;28;20072;-76
2022/05/17 01:31:20;;;;;;;32.97;4.00;;;13.00;99.90;;;;;;5013459;28;20381;-76
2022/05/17 01:33:48;;;;;;;37.45;4.70;;;12.90;99.90;;;;;;5014693;28;20065;-76
2022/05/17 01:36:21;;;;;;;29.52;4.20;;;12.90;99.90;;;;;;4997730;28;20064;-76
2022/05/17 01:38:52;;;;;;;29.75;4.35;;;12.90;99.90;;;;;;5013665;28;20053;-76
2022/05/17 01:41:21;;;;;;;26.95;4.03;;;12.90;99.90;;;;;;4997504;28;20053;-76
2022/05/17 01:43:53;;;;;;;29.48;4.25;;;12.90;99.90;;;;;;5014567;28;20472;-76
2022/05/17 01:46:20;;;;;;;28.08;4.38;;;12.80;99.90;;;;;;5013460;28;20186;-76
2022/05/17 01:48:49;;;;;;;34.13;4.50;;;12.80;99.90;;;;;;5014559;28;20041;-76
2022/05/17 01:51:17;;;;;;;33.00;4.40;;;12.80;99.90;;;;;;5013561;28;20484;-77
2022/05/17 01:53:45;;;;;;;;;;;12.80;99.90;;;;;;5015111;28;20054;-76
2022/05/17 01:56:12;;;;;;;26.85;4.57;;;12.80;99.90;;;;;;5015112;28;19921;-77
2022/05/17 01:58:40;;;;;;;24.60;3.78;;;12.70;99.90;;;;;;4996276;28;20053;-77
2022/05/17 02:01:09;;;;;;;30.58;4.35;;;12.70;99.90;;;;;;4983308;28;20061;-76
2022/05/17 02:03:38;;;;;;;30.30;4.18;;;12.70;99.90;;;;;;5018326;28;20056;-76
2022/05/17 02:06:06;;;;;;;27.48;4.50;;;12.60;99.90;;;;;;5017189;28;20572;-76
2022/05/17 02:08:34;;;;;;;26.55;4.63;;;12.60;99.90;;;;;;5018223;28;20473;-76
2022/05/17 02:11:02;;;;;;;25.63;4.40;;;12.50;99.90;;;;;;5017179;28;20365;-76
2022/05/17 02:13:30;;;;;;;25.33;4.20;;;12.50;99.90;;;;;;5018633;28;20050;-77
2022/05/17 02:15:58;;;;;;;;;;;12.50;99.90;;;;;;5018518;28;20369;-76
2022/05/17 02:18:25;;;;;;;23.63;4.28;;;12.50;99.90;;;;;;5016901;28;19922;-76
2022/05/17 02:20:53;;;;;;;35.53;4.35;;;12.40;99.90;;;;;;5000966;28;20052;-77
2022/05/17 02:23:21;;;;;;;23.67;3.88;;;12.40;99.90;;;;;;5017745;28;20065;-76
2022/05/17 02:25:48;;;;;;;25.70;3.92;;;12.40;99.90;;;;;;5016616;28;20465;-76
2022/05/17 02:28:16;;;;;;;20.98;3.58;;;12.40;99.90;;;;;;5017849;28;20050;-77
2022/05/17 02:30:44;;;;;;;34.95;4.15;;;12.30;99.90;;;;;;5017788;28;20046;-77
2022/05/17 02:33:12;;;;;;;25.00;4.07;;;12.30;99.90;;;;;;4999493;28;20045;-77
2022/05/17 02:35:41;;;;;;;27.85;4.22;;;12.30;99.90;;;;;;5017665;28;20057;-76
2022/05/17 02:38:09;;;;;;;29.92;4.13;;;12.30;99.90;;;;;;5016345;28;20046;-76
2022/05/17 02:40:37;;;;;;;;;;;12.20;99.90;;;;;;5017557;28;20053;-76
2022/05/17 02:43:05;;;;;;;24.70;4.07;;;12.20;99.90;;;;;;5017121;28;19921;-76
2022/05/17 02:45:33;;;;;;;28.23;3.63;;;12.30;99.90;;;;;;5016065;28;20087;-76
2022/05/17 02:48:00;;;;;;;24.67;3.92;;;12.30;99.90;;;;;;5017388;28;20046;-77
2022/05/17 02:50:28;;;;;;;21.92;3.70;;;12.20;99.90;;;;;;5017544;28;20060;-77
2022/05/17 02:52:56;;;;;;;24.50;4.13;;;12.20;99.90;;;;;;5016513;28;20465;-77
2022/05/17 02:55:24;;;;;;;27.60;3.95;;;12.20;99.90;;;;;;5017153;28;20053;-76
2022/05/17 02:57:53;;;;;;;32.45;4.43;;;12.20;99.90;;;;;;5016129;28;20053;-77
2022/05/17 03:00:20;;;;;;;19.92;3.63;;;12.20;99.90;;;;;;5016945;28;20477;-77
2022/05/17 03:02:48;;;;;;;20.55;3.92;;;12.10;99.90;;;;;;5016943;28;20037;-77
2022/05/17 03:05:16;;;;;;;27.45;4.20;;;12.20;99.90;;;;;;5015535;28;20042;-77
2022/05/17 03:07:44;;;;;;;;;;;12.10;99.90;;;;;;5000025;28;20042;-76
2022/05/17 03:10:11;;;;;;;22.70;3.70;;;12.10;99.90;;;;;;5016895;28;20356;-77
2022/05/17 03:12:40;;;;;;;22.05;3.45;;;12.10;99.90;;;;;;5015751;28;20068;-76
2022/05/17 03:15:08;;;;;;;19.90;3.45;;;12.10;99.90;;;;;;5016649;28;20045;-76
2022/05/17 03:17:36;;;;;;;25.23;4.28;;;12.10;99.90;;;;;;4998088;28;20049;-76
2022/05/17 03:20:04;;;;;;;20.20;3.90;;;12.10;99.90;;;;;;5016399;28;20049;-77
2022/05/17 03:22:33;;;;;;;;;;;12.10;99.90;;;;;;5017062;28;20046;-76
2022/05/17 03:25:00;;;;;;;23.63;3.45;;;12.20;99.90;;;;;;4998331;28;20236;-76
2022/05/17 03:27:48;;;;;;;25.65;3.83;;;12.10;99.90;;;;;;4999027;28;20045;-76
2022/05/17 03:30:16;;;;;;;28.58;3.90;;;12.00;99.90;;;;;;5016871;28;20053;-77
2022/05/17 03:32:43;;;;;;;;;;;12.00;99.90;;;;;;5015869;28;20057;-77
2022/05/17 03:35:11;;;;;;;21.07;3.80;;;12.10;99.90;;;;;;5016526;28;19930;-76
2022/05/17 03:37:39;;;;;;;21.25;4.05;;;12.00;99.90;;;;;;5015382;28;20291;-76
2022/05/17 03:40:11;;;;;;;26.88;3.92;;;12.00;99.90;;;;;;5016261;28;20060;-76
2022/05/17 03:42:39;;;;;;;23.88;3.72;;;12.00;99.90;;;;;;4999332;28;20053;-76
2022/05/17 03:45:07;;;;;;;29.88;4.95;;;12.00;99.90;;;;;;5015605;28;20042;-76
2022/05/17 03:47:35;;;;;;;24.58;4.03;;;11.90;99.90;;;;;;5016270;28;20050;-76
2022/05/17 03:50:04;;;;;;;18.92;3.72;;;11.90;99.90;;;;;;5016291;28;20491;-77
2022/05/17 03:52:31;;;;;;;20.20;3.90;;;11.90;99.90;;;;;;5015137;28;20361;-76
2022/05/17 03:55:02;;;;;;;27.08;4.10;;;11.90;99.90;;;;;;4999079;28;20492;-77
2022/05/17 03:57:30;;;;;;;22.58;3.83;;;11.90;99.90;;;;;;5015249;28;20461;-77
2022/05/17 03:59:58;;;;;;;;;;;11.80;99.90;;;;;;5016457;28;20053;-77
2022/05/17 04:02:26;;;;;;;21.73;4.10;;;11.80;99.90;;;;;;5016038;28;20267;-76
2022/05/17 04:04:56;;;;;;;25.88;4.20;;;11.80;99.90;;;;;;5014970;28;20053;-77
2022/05/17 04:07:24;;;;;;;20.95;4.20;;;11.80;99.90;;;;;;4998940;28;20384;-77
2022/05/17 04:09:53;;;;;;;24.55;4.28;;;11.80;99.90;;;;;;4998865;28;20041;-76
2022/05/17 04:12:20;;;;;;;19.95;4.07;;;11.70;99.90;;;;;;5014652;28;20057;-74
2022/05/17 04:14:48;;;;;;;20.00;3.97;;;11.70;99.90;;;;;;5015658;28;20050;-73
2022/05/17 04:17:15;;;;;;;19.77;3.83;;;11.70;99.90;;;;;;5016238;28;20050;-73
2022/05/17 04:19:43;;;;;;;28.05;4.15;;;11.70;99.90;;;;;;5014689;28;20050;-74
2022/05/17 04:22:11;;;;;;;26.05;3.95;;;11.70;99.90;;;;;;5015628;28;20453;-73
2022/05/17 04:24:41;;;;;;;;;;;11.70;99.90;;;;;;5014621;28;20046;-74
2022/05/17 04:27:10;;;;;;;24.35;3.90;;;11.70;99.90;;;;;;5015664;28;19932;-74
2022/05/17 04:29:37;;;;;;;22.02;3.63;;;11.70;99.90;;;;;;5015717;28;20050;-73
2022/05/17 04:32:06;;;;;;;20.83;4.28;;;11.70;99.90;;;;;;4997489;28;20491;-74
2022/05/17 04:34:33;;;;;;;21.52;3.72;;;11.80;99.90;;;;;;5015428;28;20061;-74
2022/05/17 04:37:01;;;;;;;18.15;3.72;;;11.80;99.90;;;;;;5015551;28;20050;-74
2022/05/17 04:39:30;;;;;;;21.38;3.88;;;11.80;99.90;;;;;;5014489;28;20049;-75
2022/05/17 04:41:58;;;;;;;14.20;3.75;;;11.90;99.90;;;;;;5015300;28;20053;-74
2022/05/17 04:44:27;;;;;;;;;;;12.00;99.90;;;;;;5014916;28;20056;-74
2022/05/17 04:46:54;;;;;;;16.77;3.80;;;12.00;99.90;;;;;;4998378;28;19932;-73
2022/05/17 04:49:22;;;;;;;17.00;3.83;;;12.10;99.90;;;;;;5015782;28;20045;-75
2022/05/17 04:51:52;;;;;;;18.45;3.40;;;12.20;99.90;;;;;;5014399;28;20049;-74
2022/05/17 04:54:21;;;;;;;18.33;3.53;;;12.20;99.90;;;;;;5015651;28;20053;-73
2022/05/17 04:56:48;;;;;;;19.33;3.63;;;12.30;99.90;;;;;;5015547;28;20057;-74
2022/05/17 04:59:22;;;;;;;21.52;3.75;;;12.30;99.90;;;;;;5014235;28;20050;-74
2022/05/17 05:01:50;;;;;;;;;;;12.40;99.90;;;;;;4998637;28;20053;-74
2022/05/17 05:04:18;;;;;;;20.02;3.42;;;12.50;99.90;;;;;;5014278;28;19921;-73
2022/05/17 05:06:45;;;;;;;16.60;3.55;;;12.60;99.90;;;;;;5015547;28;20061;-74
2022/05/17 05:09:13;;;;;;;17.25;3.90;;;12.70;99.90;;;;;;5015530;28;20041;-74
2022/05/17 05:11:42;;;;;;;24.58;3.92;;;12.70;99.90;;;;;;5014182;28;20369;-73
2022/05/17 05:14:09;;;;;;;20.52;3.72;;;12.80;99.90;;;;;;5014869;28;20049;-74
2022/05/17 05:16:37;;;;;;;13.80;3.17;;;12.90;99.90;;;;;;5015254;28;20050;-74
2022/05/17 05:19:05;;;;;;;18.70;3.53;;;13.10;99.90;;;;;;5013913;28;20050;-73
2022/05/17 05:21:33;;;;;;;21.90;3.80;;;13.10;99.90;;;;;;5015710;28;20053;-73
2022/05/17 05:24:04;;;;;;;;;;;13.30;99.90;;;;;;5015553;28;20046;-74
2022/05/17 05:26:32;;;;;;;16.20;3.08;;;13.40;99.90;;;;;;5014500;28;19929;-73
2022/05/17 05:29:03;;;;;;;19.05;3.55;;;13.50;99.90;;;;;;4964571;28;20057;-73
2022/05/17 05:31:30;;;;;;;17.25;3.63;;;13.60;99.90;;;;;;5013950;28;20050;-74
2022/05/17 05:34:00;;;;;;;14.65;3.28;;;13.70;99.90;;;;;;5014826;28;20046;-73
2022/05/17 05:36:28;;;;;;;21.35;3.53;;;13.80;99.90;;;;;;5017379;28;20381;-74
2022/05/17 05:38:56;;;;;;;18.67;3.08;;;14.00;99.90;;;;;;5018171;28;20049;-73
2022/05/17 05:41:24;;;;;;;17.05;3.40;;;14.00;99.90;;;;;;5018939;28;20053;-74
2022/05/17 05:43:52;;;;;;;19.05;3.55;;;14.10;99.90;;;;;;5018685;28;20042;-74
2022/05/17 05:46:20;;;;;;;;;;;14.20;99.90;;;;;;5001118;28;20053;-73
2022/05/17 05:48:47;;;;;;;16.58;3.33;;;14.40;99.90;;;;;;5018601;28;19921;-74
2022/05/17 05:51:15;;;;;;;16.52;3.88;;;14.70;99.90;;;;;;5000592;28;20061;-73
2022/05/17 05:53:42;;;;;;;16.67;3.45;;;14.50;99.90;;;;;;5001594;28;20060;-73
2022/05/17 05:56:12;;;;;;;23.15;3.70;;;14.60;99.90;;;;;;5018557;28;20053;-73
2022/05/17 05:58:42;;;;;;;20.80;3.20;;;14.70;99.90;;;;;;5017650;28;20365;-74
2022/05/17 06:01:10;;;;;;;20.33;3.70;;;14.80;99.90;;;;;;5019142;28;20077;-74
2022/05/17 06:03:38;;;;;;;16.98;3.40;;;14.90;99.90;;;;;;5001232;28;20044;-74
2022/05/17 06:06:08;;;;;;;;;;;15.00;99.90;;;;;;5017561;28;20072;-74
2022/05/17 06:08:36;;;;;;;20.52;3.40;;;15.00;99.90;;;;;;5001261;28;19921;-75
2022/05/17 06:11:05;;;;;;;13.43;3.13;;;15.00;99.90;;;;;;5017319;28;20053;-73
2022/05/17 06:13:33;;;;;;;19.27;3.10;;;15.10;99.90;;;;;;5018671;28;20046;-73
2022/05/17 06:16:01;;;;;;;19.25;3.30;;;15.20;99.90;;;;;;5018321;28;20472;-74
2022/05/17 06:18:29;;;;;;;20.05;3.65;;;15.30;99.90;;;;;;4983963;28;20388;-72
2022/05/17 06:21:01;;;;;;;17.65;3.85;;;15.30;99.90;;;;;;5001646;28;20384;-73
2022/05/17 06:23:29;;;;;;;20.20;3.45;;;15.40;99.90;;;;;;5000929;28;20049;-73
2022/05/17 06:25:57;;;;;;;;;;;15.40;99.90;;;;;;4997989;28;20042;-72
2022/05/17 06:28:28;;;;;;;19.38;3.75;;;15.50;99.90;;;;;;4990576;28;19921;-72
2022/05/17 06:30:56;;;;;;;17.33;3.92;;;15.40;99.90;;;;;;5004354;28;20045;-72
2022/05/17 06:33:24;;;;;;;19.67;3.70;;;15.40;99.90;;;;;;5000341;28;20365;-73
2022/05/17 06:35:53;;;;;;;22.95;3.60;;;15.40;99.90;;;;;;5017982;28;20046;-73
2022/05/17 06:38:21;;;;;;;18.42;3.25;;;15.50;99.90;;;;;;5017190;28;20049;-73
2022/05/17 06:40:49;;;;;;;19.00;3.30;;;15.40;99.90;;;;;;5000535;28;20062;-73
2022/05/17 06:43:17;;;;;;;;;;;15.40;99.90;;;;;;5001110;28;20050;-73
2022/05/17 06:45:44;;;;;;;21.95;3.80;;;15.40;99.90;;;;;;5016276;28;19940;-73
2022/05/17 06:48:12;;;;;;;19.00;3.58;;;15.40;99.90;;;;;;5016782;28;20042;-74
2022/05/17 06:50:40;;;;;;;18.38;3.50;;;15.40;99.90;;;;;;5017399;28;20064;-73
2022/05/17 06:53:08;;;;;;;14.88;3.70;;;15.40;99.90;;;;;;5016277;28;20050;-73
2022/05/17 06:55:37;;;;;;;17.52;3.15;;;15.50;99.90;;;;;;5017259;28;20042;-73
2022/05/17 06:58:06;;;;;;;21.88;3.90;;;15.50;99.90;;;;;;5016121;28;20057;-76
2022/05/17 07:00:34;;;;;;;;;;;15.60;99.90;;;;;;5017208;28;20137;-75
2022/05/17 07:03:01;;;;;;;13.07;2.90;;;15.60;99.90;;;;;;5016995;28;19922;-76
2022/05/17 07:05:29;;;;;;;;;;;15.80;99.90;;;;;;5016541;28;20053;-75
2022/05/17 07:08:01;;;;;;;15.50;2.80;;;15.90;99.90;;;;;;5017142;28;20359;-75
2022/05/17 07:13:16;;;;;;;16.67;2.90;;;16.20;99.90;;;;;;5016873;28;20056;-78
2022/05/17 07:15:48;;;;;;;13.50;3.03;;;16.40;99.90;;;;;;4983572;28;20050;-76
2022/05/17 07:18:20;;;;;;;13.55;3.10;;;16.60;99.90;;;;;;5015804;28;20440;-77
2022/05/17 07:20:49;;;;;;;14.95;2.97;;;16.80;99.90;;;;;;5016856;28;20053;-76
2022/05/17 07:23:18;;;;;;;15.73;2.92;;;16.90;99.90;;;;;;4999578;28;20053;-76
2022/05/17 07:25:46;;;;;;;11.57;3.25;;;17.10;99.90;;;;;;5015709;28;20046;-78
2022/05/17 07:28:19;;;;;;;13.30;2.95;;;17.20;99.90;;;;;;5016545;28;20049;-76
2022/05/17 07:30:48;;;;;;;13.23;2.70;;;17.40;99.90;;;;;;5016107;28;20057;-76
2022/05/17 07:33:16;;;;;;;15.82;3.03;;;17.50;99.90;;;;;;5016794;28;20053;-76
2022/05/17 07:35:44;;;;;;;14.80;2.60;;;17.50;99.90;;;;;;5013470;28;20045;-76
2022/05/17 07:38:13;;;;;;;13.00;2.67;;;17.60;99.90;;;;;;4996051;28;20042;-76
2022/05/17 07:40:42;;;;;;;12.88;2.22;;;17.60;99.90;;;;;;4997720;28;20053;-77
2022/05/17 07:43:09;;;;;;;14.85;2.92;;;17.60;99.90;;;;;;4997223;28;20046;-76
2022/05/17 07:45:37;;;;;;;13.45;2.63;;;17.70;99.90;;;;;;4996354;28;20050;-77
2022/05/17 07:48:06;;;;;;;;;;;17.70;99.90;;;;;;4997841;28;20042;-78
2022/05/17 07:50:34;;;;;;;15.23;2.45;;;17.60;99.90;;;;;;4997446;28;19922;-78
2022/05/17 07:53:08;;;;;;;12.10;2.50;;;17.60;99.90;;;;;;4978947;28;20341;-77
2022/05/17 07:55:38;;;;;;;13.20;2.60;;;17.60;99.90;;;;;;4979956;28;20042;-76
2022/05/17 07:58:06;;;;;;;13.00;2.60;;;17.50;99.90;;;;;;4978342;28;20054;-78
2022/05/17 08:00:35;;;;;;;13.40;2.42;;;17.50;99.90;;;;;;4997275;28;20039;-77
2022/05/17 08:03:04;;;;;;;8.90;2.10;;;17.50;99.90;;;;;;4996408;28;20043;-76
2022/05/17 08:05:32;;;;;;;12.48;2.20;;;17.50;99.90;;;;;;4995650;28;20065;-76
2022/05/17 08:08:00;;;;;;;11.68;2.22;;;17.50;99.90;;;;;;4995940;28;20042;-76
2022/05/17 08:10:29;;;;;;;8.75;2.20;;;17.50;99.90;;;;;;4996715;28;20044;-76
2022/05/17 08:12:56;;;;;;;9.82;2.20;;;17.50;99.90;;;;;;4978987;28;20054;-76
2022/05/17 08:15:24;;;;;;;12.35;2.53;;;17.50;99.90;;;;;;5000902;28;20046;-74
2022/05/17 08:18:01;;;;;;;12.50;2.75;;;17.50;99.90;;;;;;4987505;28;20046;-74
2022/05/17 08:20:30;;;;;;;15.48;2.47;;;17.60;99.90;;;;;;4996775;28;20047;-74
2022/05/17 08:22:58;;;;;;;11.02;2.40;;;17.60;99.90;;;;;;5015731;28;20041;-74
2022/05/17 08:28:13;;;;;;;11.20;2.58;;;17.60;99.90;;;;;;4994868;28;20053;-74
2022/05/17 08:30:42;;;;;;;14.88;2.47;;;17.70;99.90;;;;;;4995475;28;20050;-75
2022/05/17 08:33:16;;;;;;;14.90;3.03;;;17.80;99.90;;;;;;4999990;28;20041;-77
2022/05/17 08:35:51;;;;;;;9.52;2.25;;;17.90;99.90;;;;;;5006138;28;20061;-76
2022/05/17 08:38:38;;;;;;;12.65;2.35;;;18.00;99.90;;;;;;4995306;28;20046;-76
2022/05/17 08:41:29;;;;;;;15.60;2.25;;;18.00;99.90;;;;;;4981917;28;20442;-80
2022/05/17 08:44:08;;;;;;;9.20;2.30;;;18.20;99.90;;;;;;4999110;28;20468;-78
2022/05/17 08:47:11;;;;;;;10.10;2.20;;;18.30;99.90;;;;;;5014896;28;20049;-77
2022/05/17 08:50:08;;;;;;;11.07;2.13;;;18.30;99.90;;;;;;4998895;28;20041;-77
2022/05/17 08:52:38;;;;;;;10.30;2.00;;;18.50;99.90;;;;;;5013884;28;20342;-77
2022/05/17 08:55:27;;;;;;;12.50;2.25;;;18.50;99.90;;;;;;5015865;28;20054;-77
2022/05/17 08:58:05;;;;;;;9.32;2.15;;;18.60;99.90;;;;;;5014391;28;20050;-78
2022/05/17 09:00:41;;;;;;;8.63;2.08;;;18.70;99.90;;;;;;5015506;28;20061;-77
2022/05/17 09:03:34;;;;;;;11.13;1.88;;;18.70;99.90;;;;;;5015247;28;20053;-77
2022/05/17 09:06:31;;;;;;;6.15;2.00;;;18.80;99.90;;;;;;5014363;28;20050;-77
2022/05/17 09:09:03;;;;;;;6.50;1.80;;;18.80;99.90;;;;;;4995600;28;20072;-77
2022/05/17 09:11:54;;;;;;;6.38;1.60;;;18.90;99.90;;;;;;5014298;28;20069;-77
2022/05/17 09:14:30;;;;;;;13.10;2.00;;;19.00;99.90;;;;;;4998548;28;20046;-76
2022/05/17 09:17:14;;;;;;;8.23;2.10;;;19.10;99.90;;;;;;5014624;28;20350;-76
2022/05/17 09:19:43;;;;;;;14.43;2.33;;;19.20;99.90;;;;;;5014406;28;20042;-76
2022/05/17 09:22:10;;;;;;;14.40;2.15;;;19.30;99.90;;;;;;5015039;28;20045;-76
2022/05/17 09:24:48;;;;;;;10.43;2.08;;;19.40;99.90;;;;;;5013730;28;20046;-76
2022/05/17 09:27:24;;;;;;;8.52;1.90;;;19.50;99.90;;;;;;5014132;28;20049;-76
2022/05/17 09:30:03;;;;;;;10.20;2.05;;;19.60;99.90;;;;;;5014400;28;20046;-76
2022/05/17 09:32:36;;;;;;;7.30;2.05;;;19.70;99.90;;;;;;5013425;28;20050;-76
2022/05/17 09:35:15;;;;;;;7.97;1.88;;;19.80;99.90;;;;;;5014690;28;20038;-77
2022/05/17 09:37:49;;;;;;;11.88;2.17;;;19.90;99.90;;;;;;5013734;28;20038;-77
2022/05/17 09:40:23;;;;;;;8.60;1.90;;;20.00;99.90;;;;;;5014208;28;20046;-73
2022/05/17 09:43:02;;;;;;;9.55;1.83;;;20.10;99.90;;;;;;5014625;28;20061;-74
2022/05/17 09:45:50;;;;;;;6.28;1.80;;;20.10;99.90;;;;;;5013586;28;20049;-74
2022/05/17 09:54:47;;;;;;;5.95;1.77;;;20.40;99.90;;;;;;4996978;28;20062;-73
2022/05/17 09:57:25;;;;;;;9.68;1.98;;;20.50;99.90;;;;;;4997378;28;20060;-73
2022/05/17 10:00:01;;;;;;;7.43;1.83;;;20.60;99.90;;;;;;4996607;28;20466;-73
2022/05/17 10:02:48;;;;;;;13.75;2.28;;;20.70;99.90;;;;;;4997187;28;20076;-73
2022/05/17 10:05:24;;;;;;;8.70;1.98;;;20.70;99.90;;;;;;5013135;28;20046;-73
2022/05/17 10:08:04;;;;;;;10.93;2.15;;;20.80;99.90;;;;;;5014052;28;20046;-73
2022/05/17 10:10:35;;;;;;;9.77;1.80;;;20.90;99.90;;;;;;5013939;28;20050;-72
2022/05/17 10:13:14;;;;;;;8.50;2.00;;;21.00;99.90;;;;;;4996054;28;20050;-72
2022/05/17 10:15:45;;;;;;;9.50;2.05;;;21.10;99.90;;;;;;5014237;28;20054;-73
2022/05/17 10:18:42;;;;;;;10.70;2.05;;;21.20;99.90;;;;;;5012951;28;20061;-73
2022/05/17 10:21:19;;;;;;;11.98;2.40;;;21.20;99.90;;;;;;4993857;28;20386;-73
2022/05/17 10:24:05;;;;;;;9.43;2.00;;;21.30;99.90;;;;;;5017539;28;20046;-73
2022/05/17 10:26:39;;;;;;;7.00;1.55;;;21.40;99.90;;;;;;4999873;28;20044;-73
2022/05/17 10:29:09;;;;;;;7.90;1.73;;;21.50;99.90;;;;;;5017581;28;20053;-73
2022/05/17 10:31:46;;;;;;;7.07;1.70;;;21.60;99.90;;;;;;5016264;28;20073;-73
2022/05/17 10:34:36;;;;;;;6.78;1.80;;;21.80;99.90;;;;;;5017591;28;20048;-77
2022/05/17 10:37:12;;;;;;;10.73;2.00;;;21.90;99.90;;;;;;5016506;28;20061;-78
2022/05/17 10:39:49;;;;;;;8.13;2.10;;;22.10;99.90;;;;;;5016790;28;20041;-77
2022/05/17 10:42:17;;;;;;;8.95;1.85;;;22.20;99.90;;;;;;5018002;28;20053;-77
2022/05/17 10:44:53;;;;;;;6.22;1.70;;;22.30;99.90;;;;;;5017126;28;20053;-77
2022/05/17 10:47:43;;;;;;;9.60;2.00;;;22.40;99.90;;;;;;4997382;28;20042;-77
2022/05/17 10:50:27;;;;;;;9.40;2.15;;;22.40;99.90;;;;;;4994715;28;20372;-77
2022/05/17 10:53:04;;;;;;;7.28;1.70;;;22.50;99.90;;;;;;5016766;28;20042;-77
2022/05/17 10:55:36;;;;;;;7.65;1.83;;;22.60;99.90;;;;;;5017576;28;20046;-77
2022/05/17 10:58:21;;;;;;;7.25;1.70;;;22.60;99.90;;;;;;4999849;28;20053;-76
2022/05/17 11:01:02;;;;;;;6.15;1.83;;;22.60;99.90;;;;;;5017511;28;20042;-76
2022/05/17 11:04:01;;;;;;;6.05;1.60;;;22.60;99.90;;;;;;5000320;28;20051;-76
2022/05/17 11:06:34;;;;;;;7.30;1.73;;;22.60;99.90;;;;;;4999081;28;20481;-75
2022/05/17 11:09:08;;;;;;;8.90;2.10;;;22.60;99.90;;;;;;5000639;28;20057;-76
2022/05/17 11:11:52;;;;;;;7.75;1.70;;;22.60;99.90;;;;;;5016300;28;20050;-77
2022/05/17 11:14:33;;;;;;;6.35;1.52;;;22.60;99.90;;;;;;5017658;28;20060;-75
2022/05/17 11:17:19;;;;;;;;;;;22.50;99.90;;;;;;5017510;28;20046;-75
2022/05/17 11:19:58;;;;;;;8.10;2.65;;;22.40;99.90;;;;;;5015910;28;19941;-75
2022/05/17 11:23:01;;;;;;;7.85;1.83;;;22.40;99.90;;;;;;5016891;28;20398;-76
2022/05/17 11:26:02;;;;;;;7.78;1.85;;;22.50;99.90;;;;;;5016013;28;20046;-75
2022/05/17 11:28:48;;;;;;;9.23;1.92;;;22.70;99.90;;;;;;4999189;28;20042;-77
2022/05/17 11:31:29;;;;;;;8.53;1.43;;;22.80;99.90;;;;;;5015514;28;20053;-76
2022/05/17 11:34:22;;;;;;;8.85;1.98;;;22.80;99.90;;;;;;5016291;28;20753;-75
2022/05/17 11:36:52;;;;;;;13.00;2.22;;;22.90;99.90;;;;;;5016487;28;20457;-77
2022/05/17 11:39:46;;;;;;;8.40;1.88;;;22.90;99.90;;;;;;4998372;28;20380;-76
2022/05/17 11:42:30;;;;;;;6.30;1.48;;;22.90;99.90;;;;;;5016437;28;20065;-76
2022/05/17 11:45:22;;;;;;;6.43;1.60;;;23.00;99.90;;;;;;5015071;28;20056;-76
2022/05/17 11:47:54;;;;;;;6.35;1.60;;;23.10;99.90;;;;;;5016318;28;20049;-76
2022/05/17 11:50:28;;;;;;;6.82;1.65;;;23.30;99.90;;;;;;5016123;28;20178;-76
2022/05/17 11:53:25;;;;;;;4.93;1.30;;;23.40;99.90;;;;;;5014910;28;20054;-76
2022/05/17 11:56:14;;;;;;;7.35;1.80;;;23.50;99.60;;;;;;5015942;28;20060;-76
2022/05/17 11:58:44;;;;;;;6.82;1.60;;;23.50;99.50;;;;;;5014722;28;20365;-76
2022/05/17 12:01:31;;;;;;;9.80;2.10;;;23.60;99.90;;;;;;5015859;28;20054;-76
2022/05/17 12:04:21;;;;;;;8.10;1.95;;;23.70;99.90;;;;;;4959603;28;20065;-77
2022/05/17 12:06:48;;;;;;;9.68;1.95;;;23.70;99.90;;;;;;5015716;28;20054;-76
2022/05/17 12:09:31;;;;;;;13.75;2.10;;;23.80;99.90;;;;;;5016020;28;20046;-76
2022/05/17 12:12:22;;;;;;;10.68;2.00;;;23.90;99.90;;;;;;4997984;28;20091;-77
2022/05/17 12:15:06;;;;;;;8.68;1.90;;;24.00;99.90;;;;;;5016760;28;20057;-77
2022/05/17 12:18:00;;;;;;;5.80;1.80;;;24.00;99.90;;;;;;5015021;28;20046;-76
2022/05/17 12:21:00;;;;;;;8.75;1.77;;;24.10;99.90;;;;;;4979097;28;20389;-76
2022/05/17 12:23:45;;;;;;;8.38;1.85;;;24.10;99.30;;;;;;4996497;28;20633;-76
2022/05/17 12:26:36;;;;;;;10.90;2.10;;;24.20;99.90;;;;;;5013764;28;20061;-76
2022/05/17 12:32:01;;;;;;;9.43;1.85;;;24.30;99.90;;;;;;5013438;28;20110;-76
2022/05/17 12:34:29;;;;;;;7.78;1.70;;;24.40;98.20;;;;;;5014788;28;20053;-77
2022/05/17 12:37:14;;;;;;;8.15;2.00;;;24.40;98.80;;;;;;4981691;28;20061;-76
2022/05/17 12:45:23;;;;;;;5.20;1.67;;;24.80;99.10;;;;;;5014083;28;20065;-76
2022/05/17 12:47:53;;;;;;;6.25;1.40;;;25.00;98.60;;;;;;5015539;28;20275;-76
2022/05/17 12:50:45;;;;;;;10.63;1.75;;;25.20;97.80;;;;;;5015993;28;20377;-76
2022/05/17 12:53:25;;;;;;;6.53;1.75;;;25.40;97.30;;;;;;5014575;28;20046;-76
2022/05/17 12:56:06;;;;;;;8.07;1.80;;;25.70;97.80;;;;;;5015430;28;20057;-76
2022/05/17 12:58:36;;;;;;;5.82;1.63;;;26.10;97.50;;;;;;5014189;28;20121;-76
2022/05/17 13:01:05;;;;;;;7.88;1.60;;;26.40;97.00;;;;;;5015278;28;20049;-76
2022/05/17 13:03:33;;;;;;;7.22;1.70;;;26.60;96.80;;;;;;4998556;28;20061;-76
2022/05/17 13:06:04;;;;;;;5.38;1.77;;;26.80;96.20;;;;;;5014144;28;20037;-76
2022/05/17 13:08:37;;;;;;;6.47;1.65;;;26.90;96.10;;;;;;5015019;28;20042;-76
2022/05/17 13:11:18;;;;;;;10.98;1.90;;;27.10;95.90;;;;;;5014031;28;20050;-76
2022/05/17 13:13:46;;;;;;;8.18;1.80;;;27.40;95.60;;;;;;5015221;28;20042;-76
2022/05/17 13:16:22;;;;;;;8.82;1.50;;;27.70;95.30;;;;;;5015661;28;20057;-76
2022/05/17 13:18:51;;;;;;;7.22;1.90;;;27.90;94.80;;;;;;5013939;28;20045;-76
2022/05/17 13:21:35;;;;;;;9.88;1.60;;;27.90;94.30;;;;;;5015044;28;20065;-76
2022/05/17 13:24:06;;;;;;;5.82;1.45;;;27.90;93.60;;;;;;5015535;28;20049;-76
2022/05/17 13:26:45;;;;;;;9.90;1.63;;;27.90;93.30;;;;;;4997957;28;20485;-76
2022/05/17 13:29:32;;;;;;;6.83;1.83;;;28.20;92.90;;;;;;4997763;28;20065;-76
2022/05/17 13:32:00;;;;;;;;;;;28.60;91.90;;;;;;5013906;28;20283;-76
2022/05/17 13:34:33;;;;;;;6.15;1.90;;;28.70;91.50;;;;;;5014754;28;19930;-76
2022/05/17 13:37:19;;;;;;;8.73;1.70;;;28.80;92.30;;;;;;5015260;28;20050;-76